createdAt,value
2019-03-08T00:00:01.896Z,97.27
2019-03-08T00:00:28.035Z,97.55
2019-03-08T00:00:54.232Z,97.36
2019-03-08T00:01:20.338Z,97.08
2019-03-08T00:01:46.476Z,96.22
2019-03-08T00:02:12.585Z,95.65
2019-03-08T00:02:38.694Z,96.69
2019-03-08T00:03:05.010Z,96.6
2019-03-08T00:03:31.121Z,96.03
2019-03-08T00:03:57.255Z,95.75
2019-03-08T00:04:23.546Z,95.84
2019-03-08T00:04:49.658Z,97.08
2019-03-08T00:05:16.160Z,96.6
2019-03-08T00:05:42.264Z,97.36
2019-03-08T00:06:08.379Z,97.27
2019-03-08T00:06:34.589Z,97.74
2019-03-08T00:07:00.696Z,97.64
2019-03-08T00:07:26.830Z,97.45
2019-03-08T00:07:53.106Z,98.22
2019-03-08T00:08:19.213Z,97.64
2019-03-08T00:08:45.522Z,98.03
2019-03-08T00:09:11.622Z,97.74
2019-03-08T00:09:37.720Z,98.03
2019-03-08T00:10:03.862Z,98.69
2019-03-08T00:10:29.967Z,98.5
2019-03-08T00:10:56.267Z,99.26
2019-03-08T00:11:22.370Z,99.36
2019-03-08T00:11:48.467Z,98.97
2019-03-08T00:12:15.356Z,99.36
2019-03-08T00:12:41.460Z,99.84
2019-03-08T00:13:07.569Z,99.93
2019-03-08T00:13:33.837Z,99.84
2019-03-08T00:13:59.937Z,98.97
2019-03-08T00:14:26.070Z,98.5
2019-03-08T00:14:52.177Z,98.88
2019-03-08T00:15:18.316Z,99.99
2019-03-08T00:15:44.729Z,99.84
2019-03-08T00:16:10.844Z,99.99
2019-03-08T00:16:37.197Z,99.99
2019-03-08T00:17:03.449Z,99.99
2019-03-08T00:17:29.555Z,99.84
2019-03-08T00:17:56.656Z,99.64
2019-03-08T00:18:22.767Z,99.93
2019-03-08T00:18:48.875Z,98.88
2019-03-08T00:19:15.558Z,99.07
2019-03-08T00:19:41.661Z,99.26
2019-03-08T00:20:07.983Z,99.16
2019-03-08T00:20:34.087Z,99.07
2019-03-08T00:21:00.197Z,99.45
2019-03-08T00:21:26.594Z,99.84
2019-03-08T00:21:52.702Z,99.45
2019-03-08T00:22:19.046Z,99.26
2019-03-08T00:22:45.248Z,98.69
2019-03-08T00:23:11.356Z,98.88
2019-03-08T00:23:37.592Z,98.88
2019-03-08T00:24:03.727Z,98.69
2019-03-08T00:24:29.832Z,98.79
2019-03-08T00:24:55.961Z,99.16
2019-03-08T00:25:22.065Z,98.88
2019-03-08T00:25:49.051Z,99.16
2019-03-08T00:26:15.156Z,99.84
2019-03-08T00:26:41.264Z,99.99
2019-03-08T00:27:07.467Z,99.64
2019-03-08T00:27:33.628Z,99.16
2019-03-08T00:27:59.738Z,98.69
2019-03-08T00:28:26.072Z,98.69
2019-03-08T00:28:52.177Z,99.99
2019-03-08T00:29:18.431Z,99.93
2019-03-08T00:29:44.532Z,99.93
2019-03-08T00:30:10.789Z,99.93
2019-03-08T00:30:37.070Z,99.74
2019-03-08T00:31:03.180Z,99.74
2019-03-08T00:31:29.508Z,99.84
2019-03-08T00:31:55.668Z,99.99
2019-03-08T00:32:21.802Z,99.74
2019-03-08T00:32:48.091Z,99.84
2019-03-08T00:33:14.202Z,99.99
2019-03-08T00:33:40.309Z,99.99
2019-03-08T00:34:06.636Z,99.99
2019-03-08T00:34:32.778Z,99.99
2019-03-08T00:34:59.070Z,99.99
2019-03-08T00:35:25.172Z,99.99
2019-03-08T00:35:51.282Z,99.99
2019-03-08T00:36:17.690Z,99.99
2019-03-08T00:36:43.791Z,99.99
2019-03-08T00:37:10.000Z,99.99
2019-03-08T00:37:36.200Z,99.99
2019-03-08T00:38:02.298Z,99.99
2019-03-08T00:38:28.493Z,99.99
2019-03-08T00:38:54.602Z,99.99
2019-03-08T00:39:20.712Z,99.99
2019-03-08T00:39:47.017Z,99.99
2019-03-08T00:40:13.124Z,99.99
2019-03-08T00:40:39.357Z,99.99
2019-03-08T00:41:05.469Z,99.99
2019-03-08T00:41:31.595Z,99.99
2019-03-08T00:41:57.862Z,99.99
2019-03-08T00:42:23.993Z,99.99
2019-03-08T00:42:50.099Z,99.99
2019-03-08T00:43:16.354Z,99.99
2019-03-08T00:43:42.469Z,99.99
2019-03-08T00:44:08.803Z,99.99
2019-03-08T00:44:34.903Z,99.99
2019-03-08T00:45:01.045Z,99.99
2019-03-08T00:45:27.338Z,99.99
2019-03-08T00:45:53.446Z,99.99
2019-03-08T00:46:19.574Z,99.99
2019-03-08T00:46:45.695Z,99.99
2019-03-08T00:47:11.829Z,99.99
2019-03-08T00:47:38.205Z,99.99
2019-03-08T00:48:04.579Z,99.99
2019-03-08T00:48:30.690Z,99.99
2019-03-08T00:48:56.922Z,99.99
2019-03-08T00:49:23.055Z,99.99
2019-03-08T00:49:49.292Z,99.99
2019-03-08T00:50:15.434Z,99.99
2019-03-08T00:50:41.537Z,99.99
2019-03-08T00:51:07.801Z,99.99
2019-03-08T00:51:33.936Z,99.99
2019-03-08T00:52:00.039Z,99.99
2019-03-08T00:52:26.291Z,99.99
2019-03-08T00:52:53.386Z,99.99
2019-03-08T00:53:20.612Z,99.99
2019-03-08T00:53:46.715Z,99.99
2019-03-08T00:54:12.829Z,99.99
2019-03-08T00:54:39.050Z,99.99
2019-03-08T00:55:05.150Z,99.99
2019-03-08T00:55:31.374Z,99.99
2019-03-08T00:55:57.485Z,99.99
2019-03-08T00:56:23.599Z,99.99
2019-03-08T00:56:50.247Z,99.99
2019-03-08T00:57:16.354Z,99.99
2019-03-08T00:57:42.518Z,99.99
2019-03-08T00:58:08.594Z,99.99
2019-03-08T00:58:34.704Z,99.99
2019-03-08T00:59:00.960Z,99.99
2019-03-08T00:59:27.072Z,99.99
2019-03-08T00:59:53.177Z,99.99
2019-03-08T01:00:19.541Z,99.99
2019-03-08T01:00:45.670Z,99.99
2019-03-08T01:01:11.912Z,99.99
2019-03-08T01:01:38.020Z,99.99
2019-03-08T01:02:04.119Z,99.99
2019-03-08T01:02:30.405Z,99.99
2019-03-08T01:02:56.729Z,99.99
2019-03-08T01:03:22.826Z,99.99
2019-03-08T01:03:49.192Z,99.99
2019-03-08T01:04:15.296Z,99.99
2019-03-08T01:04:41.622Z,99.99
2019-03-08T01:05:07.734Z,99.99
2019-03-08T01:05:34.896Z,99.99
2019-03-08T01:06:01.213Z,99.99
2019-03-08T01:06:27.318Z,99.99
2019-03-08T01:06:53.570Z,99.99
2019-03-08T01:07:19.691Z,99.99
2019-03-08T01:07:45.820Z,99.99
2019-03-08T01:08:12.071Z,99.99
2019-03-08T01:08:38.174Z,99.99
2019-03-08T01:09:04.282Z,99.99
2019-03-08T01:09:30.576Z,99.99
2019-03-08T01:09:56.683Z,99.99
2019-03-08T01:10:22.994Z,99.99
2019-03-08T01:10:49.096Z,99.99
2019-03-08T01:11:15.203Z,99.99
2019-03-08T01:11:41.494Z,99.99
2019-03-08T01:12:07.598Z,99.99
2019-03-08T01:12:33.704Z,99.99
2019-03-08T01:13:00.046Z,99.99
2019-03-08T01:13:26.149Z,99.99
2019-03-08T01:13:52.394Z,99.99
2019-03-08T01:14:18.503Z,99.99
2019-03-08T01:14:46.027Z,99.99
2019-03-08T01:15:12.240Z,99.99
2019-03-08T01:15:38.348Z,99.99
2019-03-08T01:16:04.643Z,99.99
2019-03-08T01:16:31.284Z,99.99
2019-03-08T01:16:57.390Z,99.99
2019-03-08T01:17:23.686Z,99.99
2019-03-08T01:17:49.795Z,99.99
2019-03-08T01:18:15.903Z,99.99
2019-03-08T01:18:42.219Z,99.99
2019-03-08T01:19:08.319Z,99.99
2019-03-08T01:19:34.544Z,99.99
2019-03-08T01:20:00.645Z,99.99
2019-03-08T01:20:26.757Z,99.99
2019-03-08T01:20:53.046Z,99.99
2019-03-08T01:21:19.191Z,99.99
2019-03-08T01:21:45.588Z,99.99
2019-03-08T01:22:11.756Z,99.99
2019-03-08T01:22:37.865Z,99.99
2019-03-08T01:23:04.177Z,99.99
2019-03-08T01:23:30.282Z,99.99
2019-03-08T01:23:56.396Z,99.99
2019-03-08T01:24:22.596Z,99.99
2019-03-08T01:24:48.703Z,99.99
2019-03-08T01:25:14.966Z,99.99
2019-03-08T01:25:42.059Z,99.99
2019-03-08T01:26:08.161Z,99.99
2019-03-08T01:26:34.390Z,99.99
2019-03-08T01:27:00.505Z,99.99
2019-03-08T01:27:26.607Z,99.99
2019-03-08T01:27:52.940Z,99.99
2019-03-08T01:28:19.044Z,99.99
2019-03-08T01:28:45.266Z,99.99
2019-03-08T01:29:11.372Z,99.99
2019-03-08T01:29:37.481Z,99.99
2019-03-08T01:30:03.787Z,99.99
2019-03-08T01:30:29.893Z,99.99
2019-03-08T01:30:56.195Z,99.99
2019-03-08T01:31:22.305Z,99.99
2019-03-08T01:31:48.411Z,99.99
2019-03-08T01:32:15.696Z,99.99
2019-03-08T01:32:41.810Z,99.99
2019-03-08T01:33:07.932Z,99.99
2019-03-08T01:33:34.050Z,99.99
2019-03-08T01:34:00.154Z,99.99
2019-03-08T01:34:26.282Z,99.99
2019-03-08T01:34:52.393Z,99.99
2019-03-08T01:35:19.781Z,99.99
2019-03-08T01:35:45.824Z,99.99
2019-03-08T01:36:11.928Z,99.99
2019-03-08T01:36:38.137Z,99.99
2019-03-08T01:37:04.242Z,99.99
2019-03-08T01:37:30.975Z,99.99
2019-03-08T01:37:57.111Z,99.99
2019-03-08T01:38:23.215Z,99.99
2019-03-08T01:38:49.333Z,99.99
2019-03-08T01:39:15.458Z,99.99
2019-03-08T01:39:41.561Z,99.99
2019-03-08T01:40:07.740Z,99.99
2019-03-08T01:40:33.880Z,99.99
2019-03-08T01:40:59.986Z,99.99
2019-03-08T01:41:26.276Z,99.99
2019-03-08T01:41:52.370Z,99.99
2019-03-08T01:42:18.670Z,99.99
2019-03-08T01:42:44.776Z,99.99
2019-03-08T01:43:10.882Z,99.99
2019-03-08T01:43:37.298Z,99.99
2019-03-08T01:44:03.402Z,99.99
2019-03-08T01:44:29.508Z,99.99
2019-03-08T01:44:55.979Z,99.99
2019-03-08T01:45:22.086Z,99.99
2019-03-08T01:45:48.471Z,99.99
2019-03-08T01:46:14.577Z,99.99
2019-03-08T01:46:40.685Z,99.99
2019-03-08T01:47:06.969Z,99.99
2019-03-08T01:47:33.074Z,99.99
2019-03-08T01:47:59.182Z,99.99
2019-03-08T01:48:25.491Z,99.99
2019-03-08T01:48:51.596Z,99.99
2019-03-08T01:49:17.861Z,99.99
2019-03-08T01:49:43.963Z,99.99
2019-03-08T01:50:10.069Z,99.99
2019-03-08T01:50:36.308Z,99.99
2019-03-08T01:51:02.415Z,99.99
2019-03-08T01:51:28.715Z,99.99
2019-03-08T01:51:54.817Z,99.99
2019-03-08T01:52:20.929Z,99.99
2019-03-08T01:52:47.319Z,99.99
2019-03-08T01:53:13.455Z,99.99
2019-03-08T01:53:39.557Z,99.99
2019-03-08T01:54:05.843Z,99.99
2019-03-08T01:54:31.947Z,99.99
2019-03-08T01:54:58.199Z,99.99
2019-03-08T01:55:24.328Z,99.99
2019-03-08T01:55:50.438Z,99.99
2019-03-08T01:56:16.778Z,99.99
2019-03-08T01:56:43.005Z,99.99
2019-03-08T01:57:09.116Z,99.99
2019-03-08T01:57:35.298Z,99.99
2019-03-08T01:58:01.407Z,99.99
2019-03-08T01:58:27.607Z,99.99
2019-03-08T01:58:53.702Z,99.99
2019-03-08T01:59:19.808Z,99.99
2019-03-08T01:59:46.052Z,99.99
2019-03-08T02:00:12.183Z,99.99
2019-03-08T02:00:38.474Z,99.99
2019-03-08T02:01:04.575Z,99.99
2019-03-08T02:01:30.684Z,99.99
2019-03-08T02:01:57.041Z,99.99
2019-03-08T02:02:23.122Z,99.99
2019-03-08T02:02:49.225Z,99.99
2019-03-08T02:03:17.160Z,99.99
2019-03-08T02:03:42.677Z,99.99
2019-03-08T02:04:08.892Z,99.99
2019-03-08T02:04:35.027Z,99.99
2019-03-08T02:05:01.137Z,99.99
2019-03-08T02:05:27.369Z,99.99
2019-03-08T02:05:53.485Z,99.99
2019-03-08T02:06:19.713Z,99.99
2019-03-08T02:06:45.822Z,99.99
2019-03-08T02:07:11.925Z,99.99
2019-03-08T02:07:38.499Z,99.99
2019-03-08T02:08:04.618Z,99.99
2019-03-08T02:08:30.724Z,99.99
2019-03-08T02:08:56.966Z,99.99
2019-03-08T02:09:23.107Z,99.99
2019-03-08T02:09:49.290Z,99.99
2019-03-08T02:10:15.391Z,99.99
2019-03-08T02:10:41.495Z,99.99
2019-03-08T02:11:07.835Z,99.99
2019-03-08T02:11:33.938Z,99.99
2019-03-08T02:12:00.155Z,99.99
2019-03-08T02:12:26.273Z,99.99
2019-03-08T02:12:52.622Z,99.99
2019-03-08T02:13:18.987Z,99.99
2019-03-08T02:13:45.101Z,99.99
2019-03-08T02:14:11.206Z,99.99
2019-03-08T02:14:37.565Z,99.99
2019-03-08T02:15:03.666Z,99.99
2019-03-08T02:15:29.886Z,99.99
2019-03-08T02:15:55.994Z,99.99
2019-03-08T02:16:22.098Z,99.99
2019-03-08T02:16:48.318Z,99.99
2019-03-08T02:17:14.424Z,99.99
2019-03-08T02:17:40.538Z,99.99
2019-03-08T02:18:06.789Z,99.99
2019-03-08T02:18:32.897Z,99.99
2019-03-08T02:18:59.151Z,99.99
2019-03-08T02:19:25.264Z,99.99
2019-03-08T02:19:51.365Z,99.99
2019-03-08T02:20:17.549Z,99.99
2019-03-08T02:20:43.680Z,99.99
2019-03-08T02:21:11.753Z,99.99
2019-03-08T02:21:37.867Z,99.99
2019-03-08T02:22:03.973Z,99.99
2019-03-08T02:22:30.221Z,99.99
2019-03-08T02:22:56.352Z,99.99
2019-03-08T02:23:22.464Z,99.99
2019-03-08T02:23:48.720Z,99.99
2019-03-08T02:24:14.832Z,99.99
2019-03-08T02:24:41.116Z,99.99
2019-03-08T02:25:07.226Z,99.99
2019-03-08T02:25:33.334Z,99.99
2019-03-08T02:26:00.587Z,99.99
2019-03-08T02:26:26.687Z,99.99
2019-03-08T02:26:52.980Z,99.99
2019-03-08T02:27:19.089Z,99.99
2019-03-08T02:27:45.214Z,99.99
2019-03-08T02:28:11.562Z,99.99
2019-03-08T02:28:37.671Z,99.99
2019-03-08T02:29:03.771Z,99.99
2019-03-08T02:29:30.100Z,99.99
2019-03-08T02:29:56.210Z,99.99
2019-03-08T02:30:22.597Z,99.99
2019-03-08T02:30:48.748Z,99.99
2019-03-08T02:31:14.845Z,99.99
2019-03-08T02:31:41.046Z,99.99
2019-03-08T02:32:07.148Z,99.99
2019-03-08T02:32:33.255Z,99.99
2019-03-08T02:32:59.453Z,99.99
2019-03-08T02:33:25.560Z,99.99
2019-03-08T02:33:51.826Z,99.99
2019-03-08T02:34:17.927Z,99.99
2019-03-08T02:34:44.057Z,99.99
2019-03-08T02:35:10.328Z,99.99
2019-03-08T02:35:36.436Z,99.99
2019-03-08T02:36:02.750Z,99.99
2019-03-08T02:36:28.881Z,99.99
2019-03-08T02:36:55.010Z,99.99
2019-03-08T02:37:21.344Z,99.99
2019-03-08T02:37:47.448Z,99.99
2019-03-08T02:38:13.552Z,99.99
2019-03-08T02:38:39.678Z,99.99
2019-03-08T02:39:05.788Z,99.99
2019-03-08T02:39:32.876Z,99.99
2019-03-08T02:39:59.015Z,99.99
2019-03-08T02:40:25.118Z,99.99
2019-03-08T02:40:51.478Z,99.99
2019-03-08T02:41:17.579Z,99.99
2019-03-08T02:41:43.780Z,99.99
2019-03-08T02:42:09.883Z,99.99
2019-03-08T02:42:35.991Z,99.99
2019-03-08T02:43:02.274Z,99.99
2019-03-08T02:43:28.384Z,99.99
2019-03-08T02:43:54.487Z,99.99
2019-03-08T02:44:20.783Z,99.99
2019-03-08T02:44:46.886Z,99.99
2019-03-08T02:45:13.390Z,99.99
2019-03-08T02:45:39.494Z,99.99
2019-03-08T02:46:05.595Z,99.99
2019-03-08T02:46:31.826Z,99.99
2019-03-08T02:46:57.937Z,99.99
2019-03-08T02:47:24.175Z,99.99
2019-03-08T02:47:50.369Z,99.99
2019-03-08T02:48:16.496Z,99.99
2019-03-08T02:48:42.671Z,99.99
2019-03-08T02:49:08.781Z,99.99
2019-03-08T02:49:34.887Z,99.99
2019-03-08T02:50:01.179Z,99.99
2019-03-08T02:50:27.279Z,99.99
2019-03-08T02:50:53.499Z,99.99
2019-03-08T02:51:19.599Z,99.99
2019-03-08T02:51:45.713Z,99.99
2019-03-08T02:52:11.938Z,99.99
2019-03-08T02:52:38.072Z,99.99
2019-03-08T02:53:04.173Z,99.99
2019-03-08T02:53:30.508Z,99.99
2019-03-08T02:53:56.611Z,99.99
2019-03-08T02:54:22.957Z,99.99
2019-03-08T02:54:50.048Z,99.99
2019-03-08T02:55:16.148Z,99.99
2019-03-08T02:55:42.458Z,99.99
2019-03-08T02:56:08.591Z,99.99
2019-03-08T02:56:34.891Z,99.99
2019-03-08T02:57:01.052Z,99.99
2019-03-08T02:57:27.156Z,99.99
2019-03-08T02:57:53.431Z,99.99
2019-03-08T02:58:19.541Z,99.99
2019-03-08T02:58:45.672Z,99.99
2019-03-08T02:59:11.978Z,99.99
2019-03-08T02:59:38.057Z,99.99
2019-03-08T03:00:04.323Z,99.99
2019-03-08T03:00:30.424Z,99.99
2019-03-08T03:00:56.561Z,99.99
2019-03-08T03:01:22.923Z,99.99
2019-03-08T03:01:49.055Z,99.99
2019-03-08T03:02:15.347Z,99.99
2019-03-08T03:02:41.614Z,99.99
2019-03-08T03:03:07.724Z,99.99
2019-03-08T03:03:34.206Z,99.99
2019-03-08T03:04:00.299Z,99.99
2019-03-08T03:04:26.406Z,99.99
2019-03-08T03:04:52.762Z,99.99
2019-03-08T03:05:18.865Z,99.99
2019-03-08T03:05:45.962Z,99.99
2019-03-08T03:06:12.075Z,99.99
2019-03-08T03:06:38.172Z,99.99
2019-03-08T03:07:04.452Z,99.99
2019-03-08T03:07:30.556Z,99.99
2019-03-08T03:07:56.927Z,99.99
2019-03-08T03:08:23.040Z,99.99
2019-03-08T03:08:49.138Z,99.99
2019-03-08T03:09:15.421Z,99.99
2019-03-08T03:09:41.554Z,99.99
2019-03-08T03:10:07.663Z,99.99
2019-03-08T03:10:34.091Z,99.99
2019-03-08T03:11:00.205Z,99.99
2019-03-08T03:11:26.445Z,99.99
2019-03-08T03:11:52.553Z,99.99
2019-03-08T03:12:18.654Z,99.99
2019-03-08T03:12:44.802Z,99.99
2019-03-08T03:13:10.900Z,99.99
2019-03-08T03:13:37.011Z,99.99
2019-03-08T03:14:03.296Z,99.99
2019-03-08T03:14:29.404Z,99.99
2019-03-08T03:14:55.700Z,99.99
2019-03-08T03:15:21.834Z,99.99
2019-03-08T03:15:47.939Z,99.99
2019-03-08T03:16:14.113Z,99.99
2019-03-08T03:16:40.222Z,99.99
2019-03-08T03:17:06.344Z,99.99
2019-03-08T03:17:32.454Z,99.99
2019-03-08T03:17:58.556Z,99.99
2019-03-08T03:18:24.876Z,99.99
2019-03-08T03:18:50.986Z,99.99
2019-03-08T03:19:17.082Z,99.99
2019-03-08T03:19:43.390Z,99.99
2019-03-08T03:20:09.500Z,99.99
2019-03-08T03:20:35.882Z,99.99
2019-03-08T03:21:01.987Z,99.99
2019-03-08T03:21:28.093Z,99.99
2019-03-08T03:21:54.475Z,99.99
2019-03-08T03:22:20.581Z,99.99
2019-03-08T03:22:46.932Z,99.99
2019-03-08T03:23:13.182Z,99.99
2019-03-08T03:23:39.289Z,99.99
2019-03-08T03:24:05.465Z,99.99
2019-03-08T03:24:31.583Z,99.99
2019-03-08T03:24:57.684Z,99.99
2019-03-08T03:25:23.815Z,99.99
2019-03-08T03:25:49.945Z,99.99
2019-03-08T03:26:16.186Z,99.99
2019-03-08T03:26:42.295Z,99.99
2019-03-08T03:27:08.404Z,99.99
2019-03-08T03:27:34.737Z,99.99
2019-03-08T03:28:00.843Z,99.99
2019-03-08T03:28:26.980Z,99.99
2019-03-08T03:28:53.293Z,99.99
2019-03-08T03:29:19.401Z,99.99
2019-03-08T03:29:45.630Z,99.99
2019-03-08T03:30:11.742Z,99.99
2019-03-08T03:30:37.919Z,99.99
2019-03-08T03:31:04.225Z,99.99
2019-03-08T03:31:30.360Z,99.99
2019-03-08T03:31:56.762Z,99.99
2019-03-08T03:32:22.984Z,99.99
2019-03-08T03:32:49.167Z,99.99
2019-03-08T03:33:15.471Z,99.99
2019-03-08T03:33:41.630Z,99.99
2019-03-08T03:34:07.730Z,99.99
2019-03-08T03:34:33.980Z,99.99
2019-03-08T03:35:00.124Z,99.99
2019-03-08T03:35:26.412Z,99.99
2019-03-08T03:35:52.527Z,99.99
2019-03-08T03:36:18.659Z,99.99
2019-03-08T03:36:44.892Z,99.99
2019-03-08T03:37:11.001Z,99.99
2019-03-08T03:37:37.105Z,99.99
2019-03-08T03:38:03.457Z,99.99
2019-03-08T03:38:29.560Z,99.99
2019-03-08T03:38:55.881Z,99.99
2019-03-08T03:39:21.992Z,99.93
2019-03-08T03:39:48.094Z,99.93
2019-03-08T03:40:14.350Z,99.84
2019-03-08T03:40:40.457Z,99.99
2019-03-08T03:41:06.778Z,99.99
2019-03-08T03:41:32.880Z,99.99
2019-03-08T03:41:58.990Z,99.99
2019-03-08T03:42:25.325Z,99.99
2019-03-08T03:42:51.425Z,99.99
2019-03-08T03:43:17.535Z,99.99
2019-03-08T03:43:43.838Z,99.99
2019-03-08T03:44:09.946Z,99.99
2019-03-08T03:44:36.309Z,99.99
2019-03-08T03:45:02.408Z,99.99
2019-03-08T03:45:28.517Z,99.99
2019-03-08T03:45:54.893Z,99.99
2019-03-08T03:46:21.005Z,99.99
2019-03-08T03:46:47.332Z,99.99
2019-03-08T03:47:13.514Z,99.99
2019-03-08T03:47:39.656Z,99.99
2019-03-08T03:48:05.857Z,99.99
2019-03-08T03:48:31.963Z,99.99
2019-03-08T03:48:58.073Z,99.99
2019-03-08T03:49:24.294Z,99.99
2019-03-08T03:49:50.400Z,99.99
2019-03-08T03:50:18.396Z,99.99
2019-03-08T03:50:42.848Z,99.99
2019-03-08T03:51:08.958Z,99.99
2019-03-08T03:51:35.227Z,99.99
2019-03-08T03:52:01.332Z,99.99
2019-03-08T03:52:27.441Z,99.99
2019-03-08T03:52:53.691Z,99.99
2019-03-08T03:53:19.794Z,99.99
2019-03-08T03:53:46.060Z,99.99
2019-03-08T03:54:12.193Z,99.99
2019-03-08T03:54:38.299Z,99.99
2019-03-08T03:55:04.526Z,99.99
2019-03-08T03:55:30.659Z,99.99
2019-03-08T03:55:57.046Z,99.99
2019-03-08T03:56:23.177Z,99.99
2019-03-08T03:56:49.282Z,99.99
2019-03-08T03:57:15.751Z,99.99
2019-03-08T03:57:41.857Z,99.99
2019-03-08T03:58:07.950Z,99.84
2019-03-08T03:58:34.208Z,99.99
2019-03-08T03:59:00.307Z,99.99
2019-03-08T03:59:26.618Z,99.99
2019-03-08T03:59:52.724Z,99.99
2019-03-08T04:00:18.862Z,99.74
2019-03-08T04:00:45.266Z,99.99
2019-03-08T04:01:11.372Z,99.99
2019-03-08T04:01:37.627Z,99.93
2019-03-08T04:02:03.837Z,99.99
2019-03-08T04:02:29.936Z,99.99
2019-03-08T04:02:56.284Z,99.99
2019-03-08T04:03:22.392Z,99.99
2019-03-08T04:03:48.496Z,99.99
2019-03-08T04:04:14.614Z,99.99
2019-03-08T04:04:40.719Z,99.99
2019-03-08T04:05:07.025Z,99.99
2019-03-08T04:05:33.127Z,99.93
2019-03-08T04:05:59.229Z,99.99
2019-03-08T04:06:25.543Z,99.16
2019-03-08T04:06:52.605Z,99.07
2019-03-08T04:07:18.714Z,99.07
2019-03-08T04:07:44.842Z,98.88
2019-03-08T04:08:10.941Z,98.03
2019-03-08T04:08:37.178Z,98.69
2019-03-08T04:09:03.285Z,98.88
2019-03-08T04:09:29.393Z,99.07
2019-03-08T04:09:55.718Z,99.16
2019-03-08T04:10:21.824Z,98.5
2019-03-08T04:10:48.138Z,98.22
2019-03-08T04:11:14.250Z,98.69
2019-03-08T04:11:40.360Z,98.69
2019-03-08T04:12:06.698Z,98.5
2019-03-08T04:12:32.830Z,98.6
2019-03-08T04:12:58.937Z,98.69
2019-03-08T04:13:25.249Z,98.79
2019-03-08T04:13:51.354Z,98.22
2019-03-08T04:14:17.727Z,98.5
2019-03-08T04:14:43.829Z,98.69
2019-03-08T04:15:09.939Z,98.69
2019-03-08T04:15:36.132Z,98.69
2019-03-08T04:16:02.233Z,98.88
2019-03-08T04:16:28.359Z,99.36
2019-03-08T04:16:54.546Z,99.64
2019-03-08T04:17:20.649Z,99.93
2019-03-08T04:17:46.971Z,99.26
2019-03-08T04:18:13.083Z,99.99
2019-03-08T04:18:39.213Z,99.07
2019-03-08T04:19:05.447Z,99.07
2019-03-08T04:19:31.552Z,99.16
2019-03-08T04:19:57.783Z,98.97
2019-03-08T04:20:23.919Z,99.07
2019-03-08T04:20:50.049Z,98.12
2019-03-08T04:21:16.319Z,98.41
2019-03-08T04:21:42.424Z,98.5
2019-03-08T04:22:08.526Z,98.22
2019-03-08T04:22:34.778Z,98.5
2019-03-08T04:23:00.904Z,98.5
2019-03-08T04:23:27.123Z,98.41
2019-03-08T04:23:53.227Z,97.27
2019-03-08T04:24:19.367Z,98.12
2019-03-08T04:24:45.677Z,98.69
2019-03-08T04:25:11.784Z,98.88
2019-03-08T04:25:37.889Z,98.88
2019-03-08T04:26:04.134Z,99.07
2019-03-08T04:26:30.247Z,98.79
2019-03-08T04:26:56.450Z,98.79
2019-03-08T04:27:22.563Z,98.88
2019-03-08T04:27:48.673Z,98.22
2019-03-08T04:28:14.949Z,98.12
2019-03-08T04:28:41.052Z,98.5
2019-03-08T04:29:07.262Z,98.03
2019-03-08T04:29:33.404Z,98.12
2019-03-08T04:29:59.505Z,98.12
2019-03-08T04:30:25.826Z,98.12
2019-03-08T04:30:51.923Z,97.74
2019-03-08T04:31:18.033Z,97.64
2019-03-08T04:31:44.334Z,97.74
2019-03-08T04:32:10.446Z,97.55
2019-03-08T04:32:36.728Z,97.93
2019-03-08T04:33:02.833Z,97.74
2019-03-08T04:33:28.937Z,97.27
2019-03-08T04:33:55.101Z,98.5
2019-03-08T04:34:21.209Z,97.55
2019-03-08T04:34:47.387Z,97.55
2019-03-08T04:35:13.631Z,97.55
2019-03-08T04:35:39.730Z,97.36
2019-03-08T04:36:05.948Z,97.55
2019-03-08T04:36:32.052Z,97.45
2019-03-08T04:36:58.159Z,97.64
2019-03-08T04:37:24.441Z,97.36
2019-03-08T04:37:50.552Z,97.64
2019-03-08T04:38:16.807Z,97.36
2019-03-08T04:38:42.911Z,97.08
2019-03-08T04:39:09.017Z,96.79
2019-03-08T04:39:35.284Z,97.36
2019-03-08T04:40:01.389Z,97.27
2019-03-08T04:40:27.496Z,97.45
2019-03-08T04:40:53.806Z,97.64
2019-03-08T04:41:19.916Z,97.74
2019-03-08T04:41:46.079Z,97.74
2019-03-08T04:42:12.188Z,97.74
2019-03-08T04:42:38.316Z,97.55
2019-03-08T04:43:04.696Z,97.93
2019-03-08T04:43:30.802Z,97.64
2019-03-08T04:43:57.047Z,97.55
2019-03-08T04:44:23.161Z,97.74
2019-03-08T04:44:49.267Z,97.74
2019-03-08T04:45:15.695Z,98.03
2019-03-08T04:45:41.806Z,97.93
2019-03-08T04:46:07.948Z,97.64
2019-03-08T04:46:34.104Z,97.55
2019-03-08T04:47:00.212Z,97.93
2019-03-08T04:47:26.457Z,97.74
2019-03-08T04:47:52.566Z,98.22
2019-03-08T04:48:18.671Z,97.93
2019-03-08T04:48:44.830Z,98.41
2019-03-08T04:49:10.935Z,97.93
2019-03-08T04:49:37.036Z,97.64
2019-03-08T04:50:03.368Z,97.45
2019-03-08T04:50:29.469Z,97.93
2019-03-08T04:50:55.597Z,97.74
2019-03-08T04:51:21.696Z,97.45
2019-03-08T04:51:47.803Z,97.64
2019-03-08T04:52:14.287Z,97.83
2019-03-08T04:52:40.385Z,97.55
2019-03-08T04:53:06.733Z,97.74
2019-03-08T04:53:32.841Z,97.55
2019-03-08T04:53:58.941Z,97.27
2019-03-08T04:54:25.215Z,97.36
2019-03-08T04:54:51.317Z,97.36
2019-03-08T04:55:18.265Z,97.64
2019-03-08T04:55:44.529Z,97.74
2019-03-08T04:56:10.633Z,97.27
2019-03-08T04:56:36.915Z,97.45
2019-03-08T04:57:03.024Z,97.55
2019-03-08T04:57:29.125Z,97.74
2019-03-08T04:57:55.531Z,97.64
2019-03-08T04:58:21.634Z,97.74
2019-03-08T04:58:47.742Z,97.74
2019-03-08T04:59:13.917Z,97.74
2019-03-08T04:59:40.018Z,97.93
2019-03-08T05:00:06.328Z,97.45
2019-03-08T05:00:32.435Z,97.36
2019-03-08T05:00:58.538Z,97.55
2019-03-08T05:01:24.742Z,96.98
2019-03-08T05:01:50.850Z,97.36
2019-03-08T05:02:17.109Z,97.45
2019-03-08T05:02:43.217Z,97.36
2019-03-08T05:03:09.320Z,97.74
2019-03-08T05:03:35.477Z,98.5
2019-03-08T05:04:01.580Z,98.12
2019-03-08T05:04:27.690Z,98.69
2019-03-08T05:04:53.974Z,97.74
2019-03-08T05:05:20.110Z,97.93
2019-03-08T05:05:46.408Z,97.93
2019-03-08T05:06:12.509Z,97.74
2019-03-08T05:06:38.614Z,97.74
2019-03-08T05:07:04.975Z,97.27
2019-03-08T05:07:31.081Z,97.55
2019-03-08T05:07:57.268Z,97.64
2019-03-08T05:08:23.469Z,97.64
2019-03-08T05:08:49.602Z,97.27
2019-03-08T05:09:15.881Z,97.36
2019-03-08T05:09:42.013Z,97.45
2019-03-08T05:10:08.121Z,97.55
2019-03-08T05:10:34.375Z,97.55
2019-03-08T05:11:00.482Z,97.74
2019-03-08T05:11:26.682Z,97.17
2019-03-08T05:11:52.790Z,97.36
2019-03-08T05:12:18.931Z,97.17
2019-03-08T05:12:46.030Z,97.36
2019-03-08T05:13:12.159Z,97.36
2019-03-08T05:13:38.260Z,97.55
2019-03-08T05:14:04.505Z,97.45
2019-03-08T05:14:30.616Z,96.98
2019-03-08T05:14:56.857Z,96.79
2019-03-08T05:15:22.970Z,96.5
2019-03-08T05:15:49.071Z,96.5
2019-03-08T05:16:15.384Z,96.22
2019-03-08T05:16:41.495Z,95.84
2019-03-08T05:17:07.729Z,96.03
2019-03-08T05:17:33.853Z,96.03
2019-03-08T05:17:59.983Z,95.94
2019-03-08T05:18:26.253Z,95.65
2019-03-08T05:18:53.351Z,96.03
2019-03-08T05:19:19.461Z,96.22
2019-03-08T05:19:45.775Z,95.94
2019-03-08T05:20:11.884Z,96.5
2019-03-08T05:20:38.165Z,96.41
2019-03-08T05:21:04.272Z,96.5
2019-03-08T05:21:30.776Z,96.5
2019-03-08T05:21:57.198Z,96.5
2019-03-08T05:22:23.314Z,96.6
2019-03-08T05:22:49.614Z,96.6
2019-03-08T05:23:15.758Z,96.5
2019-03-08T05:23:41.862Z,96.31
2019-03-08T05:24:08.244Z,96.03
2019-03-08T05:24:34.376Z,95.84
2019-03-08T05:25:00.480Z,96.41
2019-03-08T05:25:26.901Z,95.75
2019-03-08T05:25:53.008Z,95.84
2019-03-08T05:26:19.299Z,96.79
2019-03-08T05:26:45.404Z,96.6
2019-03-08T05:27:11.509Z,96.6
2019-03-08T05:27:37.842Z,96.22
2019-03-08T05:28:04.880Z,96.6
2019-03-08T05:28:31.042Z,96.03
2019-03-08T05:28:57.270Z,95.84
2019-03-08T05:29:24.335Z,96.5
2019-03-08T05:29:50.667Z,96.22
2019-03-08T05:30:16.769Z,96.5
2019-03-08T05:30:42.873Z,96.41
2019-03-08T05:31:09.044Z,96.55
2019-03-08T05:31:35.148Z,96.41
2019-03-08T05:32:01.331Z,96.69
2019-03-08T05:32:27.440Z,95.94
2019-03-08T05:32:53.549Z,96.22
2019-03-08T05:33:19.922Z,95.94
2019-03-08T05:33:46.026Z,96.03
2019-03-08T05:34:12.137Z,95.75
2019-03-08T05:34:38.457Z,95.84
2019-03-08T05:35:04.561Z,95.94
2019-03-08T05:35:30.855Z,95.46
2019-03-08T05:35:56.992Z,95.17
2019-03-08T05:36:23.100Z,95.56
2019-03-08T05:36:49.474Z,95.46
2019-03-08T05:37:15.574Z,94.98
2019-03-08T05:37:41.839Z,95.46